Steptoe Valley North, Nevada Weather observations

Data are for 10 minute period ending at time listed.
 Day   Time   Solar   Ave.   Ave.  Ave.  Vector  Max.   Baro.   Total    
  of    of     Rad.   Air    Rel.  Wind   Wind   Wind  Press.  Precip.   
Year   Day            Temp.  Hum.  Speed  Dir.   Gust                    
2016   (PST)  Kw/m2    F      %     mph   deg.    mph    mb.     in.     
-------------------------------------------------------------------------
 176   13:00   0.95   80.4    17    8.9   278    19.1   822.0    0.00 
 176   13:10   0.93   81.1    15    9.1   262    14.9   822.0    0.00 
 176   13:20   0.92   82.3    12   10.9   239    21.1   821.9    0.00 
 176   13:30   0.90   82.0    16   10.9   278    17.5   821.8    0.00 
 176   13:40   0.88   80.7    15   10.4   272    17.2   821.7    0.00 
 176   13:50   0.87   81.3    15    9.9   279    17.7   821.7    0.00 
 176   14:00   0.85   80.9    16    9.4   291    15.9   821.7    0.00 
 176   14:10   0.83   81.7    14    9.6   261    21.1   821.7    0.00 
 176   14:20   0.80   81.9    15    9.6   275    17.4   821.6    0.00 
 176   14:30   0.78   82.6    14    9.3   259    20.0   821.5    0.00 
 176   14:40   0.76   81.8    14   10.9   299    19.1   821.5    0.00 
 176   14:50   0.73   82.2    14   10.9   281    17.0   821.5    0.00 
 176   15:00   0.71   81.6    14    8.8   272    17.0   821.4    0.00 
 176   15:10   0.68   82.1    14   11.2   269    16.9   821.4    0.00 
 176   15:20   0.65   82.3    13    8.7   263    14.6   821.3    0.00 
 176   15:30   0.62   82.2    12   10.3   253    16.8   821.3    0.00 
 176   15:40   0.59   82.1    13    9.4   270    17.0   821.2    0.00 
 176   15:50   0.56   81.5    13   12.5   271    19.5   821.2    0.00 
 176   16:00   0.53   81.2    13    9.2   283    13.7   821.2    0.00 
 176   16:10   0.50   81.5    13    9.1   275    17.3   821.1    0.00 
 176   16:20   0.47   81.2    14   10.2   296    23.8   821.0    0.00 
 176   16:30   0.44   80.8    14    9.6   307    15.8   820.9    0.00 
 176   16:40   0.41   81.1    12   10.9   270    20.0   820.9    0.00 
 176   16:50   0.38   81.0    12    9.3   279    16.2   820.8    0.00 
 176   17:00   0.34   79.6    13   11.8   315    19.2   820.8    0.00 
 176   17:10   0.31   79.5    13   11.1   289    19.1   820.8    0.00 
 176   17:20   0.28   79.3    12   11.2   296    19.3   820.9    0.00 
 176   17:30   0.25   78.6    13   12.7   302    19.4   821.0    0.00 
 176   17:40   0.22   78.3    13   10.4   293    15.6   821.0    0.00 
 176   17:50   0.19   77.9    12   11.0   278    16.4   821.2    0.00 
 176   18:00   0.16   77.4    13    9.4   300    14.0   821.2    0.00 
 176   18:10   0.14   76.6    14    8.3   302    14.6   821.4    0.00 
 176   18:20   0.11   75.2    16    9.1   315    15.1   821.5    0.00 
 176   18:30   0.09   73.6    18    8.0   327    12.1   821.6    0.00 
 176   18:40   0.07   72.5    20    8.6   328    12.2   821.8    0.00 
 176   18:50   0.05   70.6    24    8.7   343    12.1   821.9    0.00 
 176   19:00   0.02   67.9    28    6.7   345     9.6   822.1    0.00 
 176   19:10   0.01   65.3    30    6.5   345     8.6   822.3    0.00 
 176   19:20   0.01   62.7    35    6.4   359     8.8   822.5    0.00 
 176   19:30   0.00   63.0    32    7.6   339     9.4   822.7    0.00 
 176   19:40   0.00   63.8    30    8.8   334    12.3   822.9    0.00 
 176   19:50   0.00   65.3    26   10.5   328    16.6   822.9    0.00 
 176   20:00   0.00   65.8    25   10.6   333    16.9   823.1    0.00 
 176   20:10   0.00   65.0    26    8.8   337    13.9   823.4    0.00 
 176   20:20   0.00   62.9    28    8.5   334    11.0   823.5    0.00 
 176   20:30   0.00   61.9    30    7.3   325     8.8   823.5    0.00 
 176   20:40   0.00   61.0    31    8.0   326    10.4   823.6    0.00 
 176   20:50   0.00   60.5    32    8.3   322    13.1   823.7    0.00 
 176   21:00   0.00   59.9    32    9.1   322    10.6   823.7    0.00 
 176   21:10   0.00   59.6    31    8.9   325    10.1   823.7    0.00 
 176   21:20   0.00   60.0    30    8.7   332    10.9   823.7    0.00 
 176   21:30   0.00   57.9    34    7.5   337     9.2   823.8    0.00 
 176   21:40   0.00   56.5    37    7.2   339     8.7   823.8    0.00 
 176   21:50   0.00   56.5    34    7.6   329     9.6   823.8    0.00 
 176   22:00   0.00   58.2    30    8.5   324    10.1   823.8    0.00 
 176   22:10   0.00   57.4    32    7.9   337    10.1   823.8    0.00 
 176   22:20   0.00   54.1    40    6.5    40    11.0   824.1    0.00 
 176   22:30   0.00   56.5    34    7.4    70    19.4   824.3    0.00 
 176   22:40   0.00   55.3    40    7.3    89    11.0   824.4    0.00 
 176   22:50   0.00   54.2    43    5.8    92     8.1   824.5    0.00 
 176   23:00   0.00   53.7    43    6.5    82     9.6   824.7    0.00 
 176   23:10   0.00   54.2    41    6.0    83     9.2   824.9    0.00 
 176   23:20   0.00   52.4    45    5.0    71     8.4   824.9    0.00 
 176   23:30   0.00   53.4    42    7.5    78    11.2   824.9    0.00 
 176   23:40   0.00   52.1    44    6.8    60     9.9   825.1    0.00 
 176   23:50   0.00   51.4    46    6.4    49    10.2   825.2    0.00 
 177    0:00   0.00   50.7    47    6.4    45     7.9   825.3    0.00 
 177    0:10   0.00   50.8    45    5.6    39     7.2   825.5    0.00 
 177    0:20   0.00   50.7    46    3.1     6     6.5   825.5    0.00 
 177    0:30   0.00   47.8    53    4.0   316     5.4   825.5    0.00 
 177    0:40   0.00   49.7    46    3.7   324     5.0   825.5    0.00 
 177    0:50   0.00   48.4    50    3.1   339     5.0   825.6    0.00 
 177    1:00   0.00   48.2    49    3.2   343     6.1   825.7    0.00 
 177    1:10   0.00   47.3    50    3.3     1     4.4   825.7    0.00 
 177    1:20   0.00   46.5    51    3.3    16     4.6   825.9    0.00 
 177    1:30   0.00   45.9    52    3.7     8     5.0   825.9    0.00 
 177    1:40   0.00   45.7    52    4.2    19     6.3   826.0    0.00 
 177    1:50   0.00   45.3    52    3.6    51     5.2   826.1    0.00 
 177    2:00   0.00   44.6    54    4.7    24     5.4   826.2    0.00 
 177    2:10   0.00   42.8    58    5.0    15     6.1   826.2    0.00 
 177    2:20   0.00   41.5    63    4.7    23     5.9   826.3    0.00 
 177    2:30   0.00   40.9    64    4.1    34     5.3   826.4    0.00 
 177    2:40   0.00   40.3    66    4.2    34     5.0   826.4    0.00 
 177    2:50   0.00   40.7    65    5.1    28     8.1   826.6    0.00 
 177    3:00   0.00   39.9    67    5.2    32     5.8   826.7    0.00 
 177    3:10   0.00   38.7    71    5.0    23     6.1   826.7    0.00 
 177    3:20   0.00   38.4    72    5.6     7     6.7   826.7    0.00 
 177    3:30   0.00   38.7    73    5.7     4     7.2   826.8    0.00 
 177    3:40   0.00   39.4    70    5.3    20     6.4   826.9    0.00 
 177    3:50   0.00   38.9    70    5.6    42     6.8   827.0    0.00 
 177    4:00   0.00   40.1    66    5.3    60     6.8   827.0    0.00 
 177    4:10   0.00   39.5    66    4.0    77     5.4   827.1    0.00 
 177    4:20   0.01   38.2    69    2.9    74     4.5   827.3    0.00 
 177    4:30   0.03   36.9    72    3.5    60     4.8   827.4    0.00 
 177    4:40   0.05   36.6    76    4.0    44     5.2   827.4    0.00 
 177    4:50   0.07   37.9    74    4.2    56     5.9   827.5    0.00 
 177    5:00   0.10   40.8    67    5.0    38     7.7   827.6    0.00 
 177    5:10   0.12   43.7    62    5.8    28     7.6   827.6    0.00 
 177    5:20   0.15   45.5    58    5.8    17     7.5   827.5    0.00 
 177    5:30   0.18   46.7    57    5.3    21     7.0   827.5    0.00 
 177    5:40   0.21   47.9    55    4.9    22     6.3   827.5    0.00 
 177    5:50   0.24   49.5    52    5.4    14     7.5   827.5    0.00 
 177    6:00   0.27   50.7    49    7.2   352    10.2   827.4    0.00 
 177    6:10   0.31   51.7    48    7.7   346    10.2   827.4    0.00 
 177    6:20   0.34   52.8    45    7.8   342     9.6   827.5    0.00 
 177    6:30   0.38   54.1    44    7.8   341     9.8   827.5    0.00 
 177    6:40   0.41   55.0    40    8.1   337    11.1   827.6    0.00 
 177    6:50   0.45   56.0    38    8.4   343    11.0   827.6    0.00 
 177    7:00   0.48   56.9    36    8.2   349    12.1   827.7    0.00 
 177    7:10   0.51   57.7    35    8.5   347    11.8   827.7    0.00 
 177    7:20   0.55   58.7    34    8.1   347    10.7   827.8    0.00 
 177    7:30   0.58   59.0    34    7.6   340    11.9   827.8    0.00 
 177    7:40   0.61   59.7    33    7.7   348    12.1   827.9    0.00 
 177    7:50   0.64   60.1    32    6.7   350    11.2   828.0    0.00 
 177    8:00   0.67   60.9    32    7.8   355    12.0   828.0    0.00 
 177    8:10   0.70   61.8    30    6.7    22    11.8   828.0    0.00 
 177    8:20   0.73   62.7    30    6.8    24    12.1   828.0    0.00 
 177    8:30   0.76   63.4    28    6.4    38    11.5   828.0    0.00 
 177    8:40   0.79   63.8    27    6.6    16     9.3   827.8    0.00 
 177    8:50   0.81   64.0    27    6.8    15    12.3   827.8    0.00 
 177    9:00   0.84   64.5    26    6.9     5    11.9   827.8    0.00 
 177    9:10   0.86   65.1    26    6.9     2    11.4   827.7    0.00 
 177    9:20   0.88   66.0    26    6.3    20    11.1   827.6    0.00 
 177    9:30   0.90   66.4    26    6.4     8    10.6   827.5    0.00 
 177    9:40   0.92   67.0    25    6.0    22    10.7   827.4    0.00 
 177    9:50   0.94   67.5    25    6.4    40    12.3   827.4    0.00 
 177   10:00   0.95   67.7    25    5.3    30    10.7   827.4    0.00 
 177   10:10   0.97   68.4    25    5.7   360    11.0   827.3    0.00 
 177   10:20   0.98   69.3    25    7.2     3    12.5   827.2    0.00 
 177   10:30   0.99   69.8    24    4.8    12     9.6   827.2    0.00 
 177   10:40   0.99   70.0    24    5.3    35    12.6   827.2    0.00 
 177   10:50   1.00   70.7    22    3.7   337     8.8   827.1    0.00 
 177   11:00   1.00   71.1    24    5.2    38    10.4   827.0    0.00 
 177   11:10   1.01   71.4    23    4.4   353    12.5   826.9    0.00 
 177   11:20   1.01   71.4    22    4.9   342    11.4   826.8    0.00 
 177   11:30   1.01   72.2    22    4.7   333     9.1   826.7    0.00 
 177   11:40   1.01   72.7    22    4.1   312     8.4   826.7    0.00 
 177   11:50   1.01   73.2    22    5.2   293    11.4   826.5    0.00 
 177   12:00   1.01   73.6    22    6.2   336    11.6   826.4    0.00 
 177   12:10   1.00   74.0    20    3.6    43    11.9   826.3    0.00 
 177   12:20   1.00   74.8    20    5.2   323    11.4   826.2    0.00 
 177   12:30   0.99   75.0    20    6.6   309    11.1   826.1    0.00 
 177   12:40   0.98   75.0    19    4.9   325     9.3   826.1    0.00 
 177   12:50   0.97   75.4    18    4.6   337     8.2   826.0    0.00 

Return to Steptoe Valley North graphs page.


Western Regional Climate Center,wrcc@dri.edu